createdAt,value
2023-03-19T00:02:23.559Z,7.86
2023-03-19T00:05:25.051Z,7.80
2023-03-19T00:08:26.563Z,7.89
2023-03-19T00:11:28.066Z,7.91
2023-03-19T00:14:29.568Z,7.93
2023-03-19T00:17:31.342Z,7.92
2023-03-19T00:20:32.784Z,7.94
2023-03-19T00:23:34.469Z,7.92
2023-03-19T00:26:37.037Z,7.93
2023-03-19T00:29:38.536Z,7.85
2023-03-19T00:32:40.620Z,7.91
2023-03-19T00:35:42.161Z,7.81
2023-03-19T00:38:44.674Z,7.82
2023-03-19T00:41:50.514Z,7.74
2023-03-19T00:44:52.317Z,7.77
2023-03-19T00:47:53.805Z,7.75
2023-03-19T00:50:55.284Z,7.72
2023-03-19T00:53:56.822Z,7.62
2023-03-19T00:56:58.337Z,7.50
2023-03-19T00:59:59.794Z,7.52
2023-03-19T01:03:01.417Z,7.50
2023-03-19T01:06:02.923Z,7.52
2023-03-19T01:09:04.414Z,7.43
2023-03-19T01:12:06.525Z,7.43
2023-03-19T01:15:08.731Z,7.37
2023-03-19T01:18:11.067Z,7.21
2023-03-19T01:21:12.565Z,7.09
2023-03-19T01:24:14.112Z,7.07
2023-03-19T01:27:15.594Z,7.02
2023-03-19T01:30:17.104Z,7.09
2023-03-19T01:33:20.591Z,7.18
2023-03-19T01:36:22.446Z,7.24
2023-03-19T01:39:23.918Z,7.17
2023-03-19T01:42:25.698Z,7.23
2023-03-19T01:45:37.154Z,7.27
2023-03-19T01:48:46.036Z,7.31
2023-03-19T01:51:47.577Z,7.31
2023-03-19T01:54:49.017Z,7.35
2023-03-19T01:57:51.147Z,7.33
2023-03-19T02:00:53.070Z,7.33
2023-03-19T02:03:54.511Z,7.35
2023-03-19T02:06:56.265Z,7.35
2023-03-19T02:09:58.323Z,7.35
2023-03-19T02:12:59.998Z,7.25
2023-03-19T02:16:01.487Z,7.26
2023-03-19T02:19:02.996Z,7.15
2023-03-19T02:22:04.511Z,7.11
2023-03-19T02:25:20.253Z,7.15
2023-03-19T02:28:22.411Z,7.28
2023-03-19T02:31:24.154Z,7.23
2023-03-19T02:34:25.512Z,7.21
2023-03-19T02:37:28.433Z,7.15
2023-03-19T02:40:31.180Z,7.24
2023-03-19T02:43:34.050Z,7.18
2023-03-19T02:46:35.700Z,7.22
2023-03-19T02:49:37.165Z,7.16
2023-03-19T02:52:38.628Z,7.13
2023-03-19T02:55:40.217Z,7.16
2023-03-19T02:58:41.887Z,7.24
2023-03-19T03:01:43.378Z,7.23
2023-03-19T03:04:44.883Z,7.21
2023-03-19T03:07:46.367Z,7.16
2023-03-19T03:10:48.006Z,7.13
2023-03-19T03:13:49.433Z,7.12
2023-03-19T03:16:50.987Z,7.15
2023-03-19T03:19:53.217Z,7.14
2023-03-19T03:22:54.700Z,7.09
2023-03-19T03:25:56.187Z,7.08
2023-03-19T03:28:57.635Z,7.16
2023-03-19T03:31:59.091Z,7.12
2023-03-19T03:35:00.928Z,7.12
2023-03-19T03:38:03.440Z,7.14
2023-03-19T03:41:04.984Z,7.14
2023-03-19T03:44:06.721Z,7.16
2023-03-19T03:47:08.361Z,7.15
2023-03-19T03:50:11.051Z,7.14
2023-03-19T03:53:13.038Z,7.12
2023-03-19T03:56:14.497Z,7.16
2023-03-19T03:59:16.399Z,7.09
2023-03-19T04:02:17.904Z,7.11
2023-03-19T04:05:19.371Z,7.11
2023-03-19T04:08:20.813Z,7.12
2023-03-19T04:11:23.299Z,7.06
2023-03-19T04:14:24.897Z,7.22
2023-03-19T04:17:26.361Z,7.14
2023-03-19T04:20:27.842Z,7.14
2023-03-19T04:23:29.317Z,7.14
2023-03-19T04:26:30.877Z,7.11
2023-03-19T04:29:32.434Z,7.10
2023-03-19T04:32:35.554Z,7.12
2023-03-19T04:35:37.169Z,7.16
2023-03-19T04:38:38.620Z,7.15
2023-03-19T04:41:40.138Z,7.12
2023-03-19T04:44:42.068Z,7.10
2023-03-19T04:47:43.566Z,7.14
2023-03-19T04:50:47.190Z,7.24
2023-03-19T04:53:49.222Z,7.16
2023-03-19T04:56:51.120Z,7.14
2023-03-19T04:59:52.632Z,7.19
2023-03-19T05:02:54.134Z,7.20
2023-03-19T05:05:55.637Z,7.15
2023-03-19T05:08:57.086Z,7.14
2023-03-19T05:11:58.732Z,7.15
2023-03-19T05:15:00.409Z,7.03
2023-03-19T05:18:01.953Z,7.02
2023-03-19T05:21:04.874Z,7.06
2023-03-19T05:24:06.826Z,7.05
2023-03-19T05:27:08.309Z,7.01
2023-03-19T05:30:10.920Z,7.00
2023-03-19T05:33:12.921Z,7.13
2023-03-19T05:36:14.476Z,7.18
2023-03-19T05:39:15.953Z,7.11
2023-03-19T05:42:17.584Z,7.12
2023-03-19T05:45:19.188Z,7.09
2023-03-19T05:48:20.944Z,7.11
2023-03-19T05:51:22.436Z,6.99
2023-03-19T05:54:24.005Z,7.14
2023-03-19T05:57:25.525Z,7.12
2023-03-19T06:00:27.076Z,6.99
2023-03-19T06:03:28.728Z,6.99
2023-03-19T06:06:30.269Z,7.02
2023-03-19T06:09:31.709Z,6.98
2023-03-19T06:12:33.167Z,7.00
2023-03-19T06:15:34.972Z,7.10
2023-03-19T06:18:37.275Z,7.13
2023-03-19T06:21:38.822Z,7.44
2023-03-19T06:24:40.317Z,7.36
2023-03-19T06:27:41.834Z,7.33
2023-03-19T06:30:43.502Z,7.46
2023-03-19T06:33:45.149Z,7.72
2023-03-19T06:36:46.804Z,7.58
2023-03-19T06:39:49.359Z,7.58
2023-03-19T06:42:50.869Z,7.65
2023-03-19T06:45:52.384Z,7.46
2023-03-19T06:48:54.170Z,7.47
2023-03-19T06:51:56.687Z,7.60
2023-03-19T06:54:58.356Z,7.52
2023-03-19T06:57:59.815Z,7.66
2023-03-19T07:01:01.360Z,7.61
2023-03-19T07:04:02.976Z,7.80
2023-03-19T07:07:05.879Z,7.80
2023-03-19T07:10:08.885Z,7.98
2023-03-19T07:13:10.654Z,8.16
2023-03-19T07:16:12.297Z,8.06
2023-03-19T07:19:14.085Z,8.09
2023-03-19T07:22:16.137Z,8.28
2023-03-19T07:25:17.792Z,8.70
2023-03-19T07:28:19.242Z,8.52
2023-03-19T07:31:20.811Z,8.71
2023-03-19T07:34:23.186Z,8.86
2023-03-19T07:37:24.531Z,9.28
2023-03-19T07:40:26.427Z,9.37
2023-03-19T07:43:28.010Z,9.09
2023-03-19T07:46:29.773Z,9.21
2023-03-19T07:49:31.347Z,9.43
2023-03-19T07:52:32.844Z,9.60
2023-03-19T07:55:36.013Z,9.71
2023-03-19T07:58:38.668Z,9.62
2023-03-19T08:01:40.217Z,9.95
2023-03-19T08:04:41.934Z,10.10
2023-03-19T08:07:45.073Z,10.35
2023-03-19T08:10:48.034Z,10.84
2023-03-19T08:13:49.513Z,11.51
2023-03-19T08:16:51.148Z,11.92
2023-03-19T08:19:52.635Z,12.18
2023-03-19T08:22:54.225Z,12.32
2023-03-19T08:25:56.995Z,12.34
2023-03-19T08:28:59.155Z,12.11
2023-03-19T08:32:01.290Z,12.33
2023-03-19T08:35:03.495Z,12.45
2023-03-19T08:38:04.854Z,12.69
2023-03-19T08:41:06.710Z,13.16
2023-03-19T08:44:08.192Z,13.68
2023-03-19T08:47:11.345Z,14.34
2023-03-19T08:50:13.038Z,15.23
2023-03-19T08:53:15.467Z,14.95
2023-03-19T08:56:17.006Z,14.57
2023-03-19T08:59:18.521Z,14.00
2023-03-19T09:02:19.972Z,13.78
2023-03-19T09:05:22.476Z,15.27
2023-03-19T09:08:24.140Z,14.87
2023-03-19T09:11:25.896Z,14.14
2023-03-19T09:14:27.397Z,13.60
2023-03-19T09:17:28.875Z,14.18
2023-03-19T09:20:30.369Z,15.80
2023-03-19T09:23:31.837Z,15.42
2023-03-19T09:26:33.341Z,14.95
2023-03-19T09:29:34.870Z,14.46
2023-03-19T09:32:36.678Z,13.81
2023-03-19T09:35:39.743Z,13.43
2023-03-19T09:38:41.431Z,13.48
2023-03-19T09:42:00.127Z,13.62
2023-03-19T09:45:01.855Z,13.81
2023-03-19T09:48:06.678Z,13.97
2023-03-19T09:51:09.149Z,14.24
2023-03-19T09:54:22.526Z,14.31
2023-03-19T09:57:24.048Z,14.31
2023-03-19T10:00:36.769Z,14.32
2023-03-19T10:03:56.107Z,14.41
2023-03-19T10:07:05.521Z,14.91
2023-03-19T10:10:22.328Z,15.13
2023-03-19T10:13:44.507Z,15.25
2023-03-19T10:16:46.692Z,14.79
2023-03-19T10:19:53.435Z,14.58
2023-03-19T10:23:01.593Z,14.57
2023-03-19T10:26:04.614Z,14.04
2023-03-19T10:29:15.712Z,13.75
2023-03-19T10:32:34.785Z,13.49
2023-03-19T10:35:45.872Z,13.75
2023-03-19T10:38:47.414Z,14.12
2023-03-19T10:41:55.485Z,14.59
2023-03-19T10:45:00.591Z,14.88
2023-03-19T10:48:03.011Z,14.18
2023-03-19T10:51:04.868Z,14.47
2023-03-19T10:54:21.897Z,14.40
2023-03-19T10:57:26.653Z,14.73
2023-03-19T11:00:29.799Z,14.66
2023-03-19T11:03:32.301Z,14.13
2023-03-19T11:06:37.589Z,14.04
2023-03-19T11:09:40.590Z,13.93
2023-03-19T11:12:42.503Z,13.60
2023-03-19T11:15:45.973Z,14.12
2023-03-19T11:18:48.439Z,14.04
2023-03-19T11:22:07.975Z,14.19
2023-03-19T11:25:21.496Z,13.99
2023-03-19T11:28:26.412Z,13.91
2023-03-19T11:31:46.943Z,13.92
2023-03-19T11:34:59.665Z,14.10
2023-03-19T11:38:01.928Z,13.52
2023-03-19T11:41:30.550Z,13.40
2023-03-19T11:44:46.754Z,13.82
2023-03-19T11:48:27.209Z,14.21
2023-03-19T11:51:36.942Z,14.09
2023-03-19T11:54:48.422Z,14.35
2023-03-19T11:58:16.335Z,14.89
2023-03-19T12:01:28.284Z,14.66
2023-03-19T12:05:11.790Z,15.15
2023-03-19T12:08:34.346Z,15.07
2023-03-19T12:11:51.464Z,14.74
2023-03-19T12:15:25.566Z,14.66
2023-03-19T12:18:56.540Z,14.21
2023-03-19T12:22:08.191Z,14.12
2023-03-19T12:25:28.642Z,14.55
2023-03-19T12:28:30.804Z,16.00
2023-03-19T12:31:43.748Z,15.93
2023-03-19T12:35:13.032Z,16.68
2023-03-19T12:38:34.206Z,17.12
2023-03-19T12:41:37.078Z,16.38
2023-03-19T12:44:40.716Z,15.64
2023-03-19T12:47:42.185Z,15.92
2023-03-19T12:50:45.709Z,16.43
2023-03-19T12:53:52.303Z,16.15
2023-03-19T12:57:14.862Z,15.65
2023-03-19T13:00:29.941Z,15.22
2023-03-19T13:03:37.621Z,14.66
2023-03-19T13:06:44.849Z,14.48
2023-03-19T13:10:01.909Z,14.21
2023-03-19T13:13:13.926Z,13.96
2023-03-19T13:16:27.983Z,13.31
2023-03-19T13:19:40.335Z,13.39
2023-03-19T13:22:42.400Z,13.18
2023-03-19T13:25:44.645Z,13.16
2023-03-19T13:29:01.506Z,13.03
2023-03-19T13:32:10.201Z,13.19
2023-03-19T13:35:26.702Z,12.78
2023-03-19T13:38:39.810Z,12.62
2023-03-19T13:41:43.356Z,12.46
2023-03-19T13:44:52.799Z,12.60
2023-03-19T13:47:55.208Z,12.84
2023-03-19T13:51:06.839Z,13.01
2023-03-19T13:54:23.167Z,12.90
2023-03-19T13:57:36.323Z,13.04
2023-03-19T14:00:48.069Z,13.09
2023-03-19T14:04:04.196Z,13.25
2023-03-19T14:07:15.250Z,13.47
2023-03-19T14:10:25.325Z,13.82
2023-03-19T14:13:41.827Z,13.83
2023-03-19T14:16:44.340Z,13.58
2023-03-19T14:19:46.317Z,13.35
2023-03-19T14:22:56.680Z,13.03
2023-03-19T14:26:07.792Z,13.14
2023-03-19T14:29:14.532Z,12.99
2023-03-19T14:32:19.652Z,12.86
2023-03-19T14:35:23.758Z,13.06
2023-03-19T14:38:30.466Z,12.67
2023-03-19T14:41:38.309Z,12.45
2023-03-19T14:44:43.048Z,12.26
2023-03-19T14:47:44.854Z,12.32
2023-03-19T14:51:08.019Z,12.28
2023-03-19T14:54:24.941Z,12.33
2023-03-19T14:57:28.895Z,11.89
2023-03-19T15:00:44.625Z,11.97
2023-03-19T15:03:48.766Z,12.05
2023-03-19T15:06:56.488Z,12.11
2023-03-19T15:10:06.522Z,11.67
2023-03-19T15:13:09.088Z,11.76
2023-03-19T15:16:33.090Z,11.65
2023-03-19T15:19:35.360Z,11.52
2023-03-19T15:22:38.136Z,11.43
2023-03-19T15:26:01.529Z,11.29
2023-03-19T15:29:11.727Z,11.24
2023-03-19T15:32:16.051Z,10.90
2023-03-19T15:35:21.023Z,10.20
2023-03-19T15:38:23.035Z,9.99
2023-03-19T15:41:29.226Z,10.24
2023-03-19T15:44:41.144Z,10.14
2023-03-19T15:48:02.228Z,10.34
2023-03-19T15:51:09.436Z,10.41
2023-03-19T15:54:11.687Z,10.45
2023-03-19T15:57:14.078Z,10.16
2023-03-19T16:00:19.510Z,10.09
2023-03-19T16:03:34.578Z,10.08
2023-03-19T16:06:39.628Z,10.20
2023-03-19T16:09:41.516Z,10.07
2023-03-19T16:12:48.909Z,10.08
2023-03-19T16:16:11.836Z,10.22
2023-03-19T16:19:32.121Z,10.37
2023-03-19T16:22:36.513Z,10.49
2023-03-19T16:25:40.548Z,10.28
2023-03-19T16:28:45.428Z,10.30
2023-03-19T16:32:02.720Z,10.20
2023-03-19T16:35:05.882Z,10.14
2023-03-19T16:38:15.430Z,10.12
2023-03-19T16:41:28.297Z,10.07
2023-03-19T16:44:31.548Z,10.37
2023-03-19T16:47:36.435Z,10.53
2023-03-19T16:50:39.931Z,10.39
2023-03-19T16:53:42.238Z,10.30
2023-03-19T16:56:46.745Z,10.21
2023-03-19T16:59:49.206Z,10.19
2023-03-19T17:02:56.285Z,10.26
2023-03-19T17:05:58.317Z,10.20
2023-03-19T17:09:03.012Z,10.16
2023-03-19T17:12:12.596Z,10.02
2023-03-19T17:15:30.512Z,9.93
2023-03-19T17:18:35.371Z,9.84
2023-03-19T17:21:37.769Z,9.91
2023-03-19T17:24:42.814Z,9.78
2023-03-19T17:27:45.382Z,9.73
2023-03-19T17:30:47.930Z,9.46
2023-03-19T17:33:50.254Z,9.32
2023-03-19T17:37:12.731Z,9.26
2023-03-19T17:40:25.252Z,9.18
2023-03-19T17:43:27.575Z,9.17
2023-03-19T17:46:29.575Z,9.21
2023-03-19T17:49:37.048Z,9.21
2023-03-19T17:52:39.401Z,9.15
2023-03-19T17:55:41.757Z,9.12
2023-03-19T17:58:44.253Z,9.06
2023-03-19T18:01:50.138Z,9.05
2023-03-19T18:04:54.398Z,9.02
2023-03-19T18:07:59.086Z,8.99
2023-03-19T18:11:01.340Z,8.97
2023-03-19T18:14:02.907Z,8.93
2023-03-19T18:17:08.551Z,8.91
2023-03-19T18:20:15.188Z,8.87
2023-03-19T18:23:17.650Z,8.86
2023-03-19T18:26:24.563Z,8.79
2023-03-19T18:29:27.388Z,8.68
2023-03-19T18:32:30.834Z,8.54
2023-03-19T18:35:45.439Z,8.72
2023-03-19T18:38:52.040Z,8.61
2023-03-19T18:41:54.756Z,8.53
2023-03-19T18:44:56.659Z,8.43
2023-03-19T18:48:00.485Z,8.25
2023-03-19T18:51:02.846Z,8.28
2023-03-19T18:54:05.974Z,8.38
2023-03-19T18:57:11.353Z,8.43
2023-03-19T19:00:28.393Z,8.46
2023-03-19T19:03:36.837Z,8.45
2023-03-19T19:06:47.330Z,8.25
2023-03-19T19:13:17.000Z,8.33
2023-03-19T19:16:23.845Z,8.20
2023-03-19T19:19:27.641Z,8.26
2023-03-19T19:22:29.820Z,8.29
2023-03-19T19:25:31.471Z,8.31
2023-03-19T19:28:36.352Z,8.26
2023-03-19T19:31:40.563Z,8.11
2023-03-19T19:34:42.427Z,8.03
2023-03-19T19:37:44.084Z,8.16
2023-03-19T19:40:47.164Z,8.16
2023-03-19T19:43:49.010Z,8.16
2023-03-19T19:46:53.417Z,8.13
2023-03-19T19:49:55.203Z,8.00
2023-03-19T19:52:56.968Z,8.07
2023-03-19T19:55:58.683Z,8.02
2023-03-19T19:59:00.612Z,8.07
2023-03-19T20:02:02.127Z,8.13
2023-03-19T20:05:04.668Z,8.12
2023-03-19T20:08:06.473Z,8.00
2023-03-19T20:11:22.337Z,7.97
2023-03-19T20:14:24.087Z,7.93
2023-03-19T20:17:25.922Z,7.87
2023-03-19T20:20:29.111Z,7.91
2023-03-19T20:23:32.310Z,7.83
2023-03-19T20:26:35.110Z,7.71
2023-03-19T20:29:37.144Z,7.74
2023-03-19T20:32:39.019Z,7.74
2023-03-19T20:35:40.761Z,7.77
2023-03-19T20:38:42.635Z,7.77
2023-03-19T20:41:44.453Z,7.67
2023-03-19T20:44:46.237Z,7.57
2023-03-19T20:47:48.716Z,7.55
2023-03-19T20:50:50.656Z,7.55
2023-03-19T20:53:52.964Z,7.50
2023-03-19T20:56:54.943Z,7.44
2023-03-19T21:00:02.268Z,7.25
2023-03-19T21:03:04.018Z,7.26
2023-03-19T21:06:08.556Z,7.34
2023-03-19T21:09:10.539Z,7.39
2023-03-19T21:12:28.508Z,7.32
2023-03-19T21:15:31.008Z,7.17
2023-03-19T21:18:32.934Z,7.28
2023-03-19T21:21:35.804Z,7.33
2023-03-19T21:24:37.403Z,7.17
2023-03-19T21:27:42.218Z,7.19
2023-03-19T21:30:44.046Z,7.23
2023-03-19T21:33:46.742Z,7.19
2023-03-19T21:36:51.461Z,7.15
2023-03-19T21:39:53.202Z,7.17
2023-03-19T21:42:58.441Z,7.18
2023-03-19T21:46:13.840Z,7.08
2023-03-19T21:49:16.163Z,7.00
2023-03-19T21:52:19.421Z,6.94
2023-03-19T21:55:21.219Z,7.02
2023-03-19T21:58:28.945Z,7.07
2023-03-19T22:01:30.693Z,7.06
2023-03-19T22:04:34.967Z,7.03
2023-03-19T22:07:38.804Z,7.11
2023-03-19T22:10:40.735Z,7.15
2023-03-19T22:13:43.374Z,7.14
2023-03-19T22:16:51.312Z,7.16
2023-03-19T22:19:54.142Z,7.18
2023-03-19T22:22:56.331Z,7.21
2023-03-19T22:25:57.962Z,7.25
2023-03-19T22:29:02.392Z,7.21
2023-03-19T22:32:04.089Z,7.21
2023-03-19T22:35:06.380Z,7.03
2023-03-19T22:38:08.061Z,7.08
2023-03-19T22:41:15.287Z,7.08
2023-03-19T22:44:26.479Z,7.09
2023-03-19T22:47:28.129Z,7.12
2023-03-19T22:50:31.108Z,7.11
2023-03-19T22:53:34.652Z,7.12
2023-03-19T22:56:38.690Z,7.10
2023-03-19T22:59:44.298Z,7.11
2023-03-19T23:02:46.813Z,7.07
2023-03-19T23:05:49.332Z,6.88
2023-03-19T23:08:51.037Z,6.82
2023-03-19T23:11:53.660Z,6.85
2023-03-19T23:14:56.774Z,6.90
2023-03-19T23:17:58.943Z,6.95
2023-03-19T23:21:01.047Z,7.02
2023-03-19T23:24:02.720Z,7.06
2023-03-19T23:27:04.350Z,7.10
2023-03-19T23:30:06.565Z,7.14
2023-03-19T23:33:08.804Z,7.17
2023-03-19T23:36:10.946Z,7.10
2023-03-19T23:39:12.575Z,7.11
2023-03-19T23:42:22.469Z,7.15
2023-03-19T23:45:28.984Z,6.98
2023-03-19T23:48:39.221Z,6.98
2023-03-19T23:51:43.095Z,6.95
2023-03-19T23:54:46.719Z,7.15
2023-03-19T23:57:48.512Z,7.22
